Shiloh, Georgia
Current Conditions -  °F | °C
As of 12:51 PM on Thursday 23 Oct 2014 (Local Time) from KCSG Reporting Station
Clear Clear  
Wind Chill: 65°   Ceiling: Unl
Heat Index: 65°   Visibility: 10mi
Dew Point: 44°   Wind: 0mph
Humidity: 47%   Direction: NA
Pressure: 30.12"   Gusts: NA
Location:  32.81°N, 84.7°W
Report Text: KCSG 231651Z 00000KT 10SM CLR 18/07 A3012 RMK AO2 SLP197 T01830067
Loading
Personal Weather Stations






























Interactive Weather Map
Tropical Storm Tracking
New forecast layout! Learn more

10-Day Weather Forecast

Advertisements
Track Severe Weather on mobile